sensor_id;sensor_type;location;lat;lon;timestamp;pressure;altitude;pressure_sealevel;temperature;humidity
70571;BME280;58135;50.948;-1.458;2022-07-03T00:01:03;101543.89;;;14.22;15.57
70571;BME280;58135;50.948;-1.458;2022-07-03T00:03:28;101538.63;;;16.76;15.44
70571;BME280;58135;50.948;-1.458;2022-07-03T00:05:54;101537.95;;;15.86;15.38
70571;BME280;58135;50.948;-1.458;2022-07-03T00:08:19;101537.96;;;16.63;15.36
70571;BME280;58135;50.948;-1.458;2022-07-03T00:10:45;101538.78;;;15.72;15.41
70571;BME280;58135;50.948;-1.458;2022-07-03T00:13:10;101538.45;;;15.70;16.03
70571;BME280;58135;50.948;-1.458;2022-07-03T00:15:36;101538.72;;;15.70;16.24
70571;BME280;58135;50.948;-1.458;2022-07-03T00:18:02;101535.88;;;15.70;15.97
70571;BME280;58135;50.948;-1.458;2022-07-03T00:20:30;101534.92;;;14.84;15.74
70571;BME280;58135;50.948;-1.458;2022-07-03T00:22:53;101532.27;;;14.82;15.85
70571;BME280;58135;50.948;-1.458;2022-07-03T00:25:18;101531.02;;;13.73;15.74
70571;BME280;58135;50.948;-1.458;2022-07-03T00:27:44;101531.70;;;14.59;15.80
70571;BME280;58135;50.948;-1.458;2022-07-03T00:30:10;101529.51;;;15.49;15.63
70571;BME280;58135;50.948;-1.458;2022-07-03T00:32:39;101528.14;;;15.54;15.66
70571;BME280;58135;50.948;-1.458;2022-07-03T00:35:01;101526.67;;;15.43;15.61
70571;BME280;58135;50.948;-1.458;2022-07-03T00:37:26;101531.65;;;15.14;15.58
70571;BME280;58135;50.948;-1.458;2022-07-03T00:39:51;101533.55;;;14.09;15.56
70571;BME280;58135;50.948;-1.458;2022-07-03T00:42:17;101532.62;;;14.93;15.61
70571;BME280;58135;50.948;-1.458;2022-07-03T00:44:44;101535.35;;;15.61;15.63
70571;BME280;58135;50.948;-1.458;2022-07-03T00:47:08;101533.21;;;12.90;15.55
70571;BME280;58135;50.948;-1.458;2022-07-03T00:49:35;101537.64;;;14.58;15.94
70571;BME280;58135;50.948;-1.458;2022-07-03T00:52:03;101537.40;;;13.62;16.14
70571;BME280;58135;50.948;-1.458;2022-07-03T00:54:25;101535.79;;;12.44;16.08
70571;BME280;58135;50.948;-1.458;2022-07-03T00:56:52;101534.63;;;14.02;16.09
70571;BME280;58135;50.948;-1.458;2022-07-03T00:59:16;101536.83;;;15.67;15.93
70571;BME280;58135;50.948;-1.458;2022-07-03T01:01:42;101532.76;;;13.90;16.03
70571;BME280;58135;50.948;-1.458;2022-07-03T01:04:17;101530.19;;;13.96;16.07
70571;BME280;58135;50.948;-1.458;2022-07-03T01:06:35;101533.33;;;14.85;16.14
70571;BME280;58135;50.948;-1.458;2022-07-03T01:09:01;101534.60;;;14.84;16.23
70571;BME280;58135;50.948;-1.458;2022-07-03T01:11:28;101534.35;;;14.03;16.24
70571;BME280;58135;50.948;-1.458;2022-07-03T01:14:00;101540.74;;;15.09;16.41
70571;BME280;58135;50.948;-1.458;2022-07-03T01:16:19;101537.86;;;15.00;16.13
70571;BME280;58135;50.948;-1.458;2022-07-03T01:18:44;101542.61;;;14.94;16.12
70571;BME280;58135;50.948;-1.458;2022-07-03T01:21:08;101540.81;;;14.83;16.14
70571;BME280;58135;50.948;-1.458;2022-07-03T01:23:43;101538.61;;;15.64;16.28
70571;BME280;58135;50.948;-1.458;2022-07-03T01:25:58;101537.31;;;15.60;16.21
70571;BME280;58135;50.948;-1.458;2022-07-03T01:28:22;101534.18;;;13.82;16.51
70571;BME280;58135;50.948;-1.458;2022-07-03T01:30:50;101531.63;;;16.45;16.29
70571;BME280;58135;50.948;-1.458;2022-07-03T01:33:16;101532.23;;;12.83;16.49
70571;BME280;58135;50.948;-1.458;2022-07-03T01:35:40;101531.05;;;14.58;16.40
70571;BME280;58135;50.948;-1.458;2022-07-03T01:38:07;101532.83;;;14.46;16.23
70571;BME280;58135;50.948;-1.458;2022-07-03T01:40:32;101536.37;;;16.09;16.59
70571;BME280;58135;50.948;-1.458;2022-07-03T01:42:56;101537.26;;;14.16;16.28
70571;BME280;58135;50.948;-1.458;2022-07-03T01:45:22;101538.11;;;14.19;16.42
70571;BME280;58135;50.948;-1.458;2022-07-03T01:47:47;101537.76;;;15.06;16.50
70571;BME280;58135;50.948;-1.458;2022-07-03T01:50:14;101539.81;;;15.05;16.40
70571;BME280;58135;50.948;-1.458;2022-07-03T01:52:40;101535.87;;;14.97;16.29
70571;BME280;58135;50.948;-1.458;2022-07-03T01:55:04;101535.99;;;12.15;16.53
70571;BME280;58135;50.948;-1.458;2022-07-03T01:57:36;101536.31;;;15.74;16.55
70571;BME280;58135;50.948;-1.458;2022-07-03T01:59:59;101536.78;;;13.95;16.54
70571;BME280;58135;50.948;-1.458;2022-07-03T02:02:24;101539.96;;;14.84;16.53
70571;BME280;58135;50.948;-1.458;2022-07-03T02:04:53;101544.74;;;15.60;16.54
70571;BME280;58135;50.948;-1.458;2022-07-03T02:07:18;101544.19;;;14.62;16.61
70571;BME280;58135;50.948;-1.458;2022-07-03T02:09:44;101542.32;;;11.95;16.55
70571;BME280;58135;50.948;-1.458;2022-07-03T02:12:03;101541.46;;;13.71;16.34
70571;BME280;58135;50.948;-1.458;2022-07-03T02:14:32;101540.67;;;14.53;16.22
70571;BME280;58135;50.948;-1.458;2022-07-03T02:17:01;101541.69;;;13.42;16.26
70571;BME280;58135;50.948;-1.458;2022-07-03T02:19:22;101537.82;;;13.06;16.22
70571;BME280;58135;50.948;-1.458;2022-07-03T02:21:47;101537.23;;;14.66;16.23
70571;BME280;58135;50.948;-1.458;2022-07-03T02:24:17;101537.78;;;15.47;16.41
70571;BME280;58135;50.948;-1.458;2022-07-03T02:26:39;101534.89;;;12.88;16.02
70571;BME280;58135;50.948;-1.458;2022-07-03T02:29:03;101534.03;;;16.14;14.90
70571;BME280;58135;50.948;-1.458;2022-07-03T02:31:27;101531.18;;;14.15;15.82
70571;BME280;58135;50.948;-1.458;2022-07-03T02:33:55;101527.95;;;13.94;16.02
70571;BME280;58135;50.948;-1.458;2022-07-03T02:36:19;101521.88;;;14.75;15.95
70571;BME280;58135;50.948;-1.458;2022-07-03T02:38:44;101522.18;;;14.66;15.78
70571;BME280;58135;50.948;-1.458;2022-07-03T02:41:12;101522.14;;;12.68;16.05
70571;BME280;58135;50.948;-1.458;2022-07-03T02:43:38;101524.67;;;13.50;15.98
70571;BME280;58135;50.948;-1.458;2022-07-03T02:46:04;101526.28;;;14.24;16.06
70571;BME280;58135;50.948;-1.458;2022-07-03T02:48:31;101529.53;;;13.41;16.07
70571;BME280;58135;50.948;-1.458;2022-07-03T02:50:52;101523.82;;;13.36;16.08
70571;BME280;58135;50.948;-1.458;2022-07-03T02:53:24;101526.06;;;15.10;16.20
70571;BME280;58135;50.948;-1.458;2022-07-03T02:55:43;101530.80;;;13.34;16.18
70571;BME280;58135;50.948;-1.458;2022-07-03T02:58:25;101533.54;;;13.12;16.12
70571;BME280;58135;50.948;-1.458;2022-07-03T03:00:35;101536.92;;;11.21;16.30
70571;BME280;58135;50.948;-1.458;2022-07-03T03:02:58;101539.67;;;13.82;16.24
70571;BME280;58135;50.948;-1.458;2022-07-03T03:05:28;101539.64;;;14.66;16.12
70571;BME280;58135;50.948;-1.458;2022-07-03T03:07:59;101540.77;;;12.96;16.33
70571;BME280;58135;50.948;-1.458;2022-07-03T03:10:18;101540.07;;;14.70;16.33
70571;BME280;58135;50.948;-1.458;2022-07-03T03:12:41;101541.67;;;12.85;16.32
70571;BME280;58135;50.948;-1.458;2022-07-03T03:15:08;101545.65;;;14.66;16.47
70571;BME280;58135;50.948;-1.458;2022-07-03T03:17:36;101544.74;;;13.01;16.54
70571;BME280;58135;50.948;-1.458;2022-07-03T03:19:59;101549.39;;;12.37;16.53
70571;BME280;58135;50.948;-1.458;2022-07-03T03:22:28;101550.56;;;13.39;16.26
70571;BME280;58135;50.948;-1.458;2022-07-03T03:24:48;101548.68;;;15.32;16.27
70571;BME280;58135;50.948;-1.458;2022-07-03T03:27:14;101544.78;;;13.65;16.16
70571;BME280;58135;50.948;-1.458;2022-07-03T03:29:40;101548.10;;;15.37;16.51
70571;BME280;58135;50.948;-1.458;2022-07-03T03:32:06;101547.79;;;13.68;16.38
70571;BME280;58135;50.948;-1.458;2022-07-03T03:34:31;101545.21;;;13.73;16.06
70571;BME280;58135;50.948;-1.458;2022-07-03T03:36:56;101542.45;;;15.59;16.63
70571;BME280;58135;50.948;-1.458;2022-07-03T03:39:22;101540.52;;;13.91;16.48
70571;BME280;58135;50.948;-1.458;2022-07-03T03:41:48;101544.17;;;14.90;16.61
70571;BME280;58135;50.948;-1.458;2022-07-03T03:44:13;101546.61;;;16.69;16.70
70571;BME280;58135;50.948;-1.458;2022-07-03T03:46:39;101544.33;;;15.12;16.48
70571;BME280;58135;50.948;-1.458;2022-07-03T03:49:04;101538.09;;;13.52;16.21
70571;BME280;58135;50.948;-1.458;2022-07-03T03:51:30;101540.30;;;13.59;16.63
70571;BME280;58135;50.948;-1.458;2022-07-03T03:53:55;101538.17;;;14.63;16.57
70571;BME280;58135;50.948;-1.458;2022-07-03T03:56:21;101538.20;;;15.60;16.58
70571;BME280;58135;50.948;-1.458;2022-07-03T03:58:47;101536.64;;;13.87;16.71
70571;BME280;58135;50.948;-1.458;2022-07-03T04:01:12;101536.75;;;13.04;16.45
70571;BME280;58135;50.948;-1.458;2022-07-03T04:03:38;101539.27;;;13.99;16.47
70571;BME280;58135;50.948;-1.458;2022-07-03T04:06:04;101543.55;;;15.07;16.62
70571;BME280;58135;50.948;-1.458;2022-07-03T04:08:29;101542.89;;;14.29;16.62
70571;BME280;58135;50.948;-1.458;2022-07-03T04:10:55;101542.97;;;17.03;16.47
70571;BME280;58135;50.948;-1.458;2022-07-03T04:13:20;101545.44;;;13.58;16.51
70571;BME280;58135;50.948;-1.458;2022-07-03T04:15:46;101546.93;;;13.73;16.56
70571;BME280;58135;50.948;-1.458;2022-07-03T04:18:11;101549.12;;;14.62;16.62
70571;BME280;58135;50.948;-1.458;2022-07-03T04:20:36;101551.21;;;14.67;16.57
70571;BME280;58135;50.948;-1.458;2022-07-03T04:23:02;101549.80;;;15.64;16.59
70571;BME280;58135;50.948;-1.458;2022-07-03T04:25:27;101552.00;;;14.81;16.62
70571;BME280;58135;50.948;-1.458;2022-07-03T04:27:53;101550.56;;;15.80;16.57
70571;BME280;58135;50.948;-1.458;2022-07-03T04:30:18;101551.47;;;14.20;16.52
70571;BME280;58135;50.948;-1.458;2022-07-03T04:32:44;101552.86;;;15.13;16.49
70571;BME280;58135;50.948;-1.458;2022-07-03T04:35:09;101556.65;;;13.32;16.46
70571;BME280;58135;50.948;-1.458;2022-07-03T04:37:35;101557.12;;;16.09;16.46
70571;BME280;58135;50.948;-1.458;2022-07-03T04:40:00;101556.93;;;15.35;16.47
70571;BME280;58135;50.948;-1.458;2022-07-03T04:42:26;101557.92;;;13.67;16.52
70571;BME280;58135;50.948;-1.458;2022-07-03T04:44:52;101561.77;;;14.59;16.49
70571;BME280;58135;50.948;-1.458;2022-07-03T04:47:17;101560.97;;;15.59;16.44
70571;BME280;58135;50.948;-1.458;2022-07-03T04:49:42;101559.79;;;15.63;16.45
70571;BME280;58135;50.948;-1.458;2022-07-03T04:52:08;101553.89;;;16.60;16.35
70571;BME280;58135;50.948;-1.458;2022-07-03T04:54:34;101554.80;;;15.81;16.43
70571;BME280;58135;50.948;-1.458;2022-07-03T04:56:59;101553.44;;;16.83;16.39
70571;BME280;58135;50.948;-1.458;2022-07-03T04:59:25;101556.04;;;15.17;16.31
70571;BME280;58135;50.948;-1.458;2022-07-03T05:01:50;101556.99;;;15.33;16.22
70571;BME280;58135;50.948;-1.458;2022-07-03T05:04:16;101559.39;;;14.58;16.28
70571;BME280;58135;50.948;-1.458;2022-07-03T05:06:42;101561.87;;;13.86;16.35
70571;BME280;58135;50.948;-1.458;2022-07-03T05:09:07;101564.44;;;15.81;16.38
70571;BME280;58135;50.948;-1.458;2022-07-03T05:11:33;101566.73;;;15.88;16.09
70571;BME280;58135;50.948;-1.458;2022-07-03T05:13:58;101566.77;;;14.06;16.34
70571;BME280;58135;50.948;-1.458;2022-07-03T05:16:24;101566.82;;;15.06;16.36
70571;BME280;58135;50.948;-1.458;2022-07-03T05:18:49;101562.00;;;16.06;16.38
70571;BME280;58135;50.948;-1.458;2022-07-03T05:21:15;101555.97;;;17.06;16.36
70571;BME280;58135;50.948;-1.458;2022-07-03T05:23:40;101551.60;;;14.22;15.89
70571;BME280;58135;50.948;-1.458;2022-07-03T05:26:06;101554.11;;;15.04;15.48
70571;BME280;58135;50.948;-1.458;2022-07-03T05:28:31;101555.92;;;16.04;16.06
70571;BME280;58135;50.948;-1.458;2022-07-03T05:30:57;101560.79;;;14.30;16.28
70571;BME280;58135;50.948;-1.458;2022-07-03T05:33:23;101564.10;;;16.87;15.66
70571;BME280;58135;50.948;-1.458;2022-07-03T05:35:48;101566.55;;;14.90;16.22
70571;BME280;58135;50.948;-1.458;2022-07-03T05:38:14;101571.60;;;15.03;16.31
70571;BME280;58135;50.948;-1.458;2022-07-03T05:40:39;101576.33;;;14.32;16.43
70571;BME280;58135;50.948;-1.458;2022-07-03T05:43:05;101573.14;;;16.14;16.55
70571;BME280;58135;50.948;-1.458;2022-07-03T05:45:30;101573.15;;;15.93;16.32
70571;BME280;58135;50.948;-1.458;2022-07-03T05:47:56;101571.69;;;15.27;16.28
70571;BME280;58135;50.948;-1.458;2022-07-03T05:50:21;101571.72;;;16.42;16.44
70571;BME280;58135;50.948;-1.458;2022-07-03T05:52:47;101573.09;;;17.33;16.41
70571;BME280;58135;50.948;-1.458;2022-07-03T05:55:13;101576.28;;;14.78;16.46
70571;BME280;58135;50.948;-1.458;2022-07-03T05:57:38;101572.41;;;15.74;16.49
70571;BME280;58135;50.948;-1.458;2022-07-03T06:00:05;101573.52;;;15.82;16.56
70571;BME280;58135;50.948;-1.458;2022-07-03T06:02:29;101573.10;;;16.78;16.37
70571;BME280;58135;50.948;-1.458;2022-07-03T06:04:55;101572.25;;;15.11;16.10
70571;BME280;58135;50.948;-1.458;2022-07-03T06:07:20;101578.00;;;15.10;16.03
70571;BME280;58135;50.948;-1.458;2022-07-03T06:09:46;101571.17;;;17.02;16.13
70571;BME280;58135;50.948;-1.458;2022-07-03T06:12:11;101570.79;;;15.42;16.44
70571;BME280;58135;50.948;-1.458;2022-07-03T06:14:38;101572.72;;;16.31;16.61
70571;BME280;58135;50.948;-1.458;2022-07-03T06:17:03;101571.98;;;17.17;16.66
70571;BME280;58135;50.948;-1.458;2022-07-03T06:19:28;101575.07;;;17.28;16.68
70571;BME280;58135;50.948;-1.458;2022-07-03T06:21:53;101577.40;;;14.66;16.69
70571;BME280;58135;50.948;-1.458;2022-07-03T06:24:19;101576.67;;;14.79;16.55
70571;BME280;58135;50.948;-1.458;2022-07-03T06:26:44;101573.49;;;14.84;16.75
70571;BME280;58135;50.948;-1.458;2022-07-03T06:29:10;101575.54;;;15.82;16.69
70571;BME280;58135;50.948;-1.458;2022-07-03T06:31:35;101579.74;;;16.09;16.66
70571;BME280;58135;50.948;-1.458;2022-07-03T06:34:01;101576.59;;;15.60;16.54
70571;BME280;58135;50.948;-1.458;2022-07-03T06:36:26;101577.36;;;16.94;16.49
70571;BME280;58135;50.948;-1.458;2022-07-03T06:38:51;101576.82;;;16.48;16.62
70571;BME280;58135;50.948;-1.458;2022-07-03T06:41:17;101578.77;;;15.87;16.45
70571;BME280;58135;50.948;-1.458;2022-07-03T06:43:42;101578.16;;;16.94;16.73
70571;BME280;58135;50.948;-1.458;2022-07-03T06:46:08;101578.81;;;17.57;16.65
70571;BME280;58135;50.948;-1.458;2022-07-03T06:48:34;101582.98;;;16.46;16.55
70571;BME280;58135;50.948;-1.458;2022-07-03T06:50:59;101579.65;;;17.08;16.44
70571;BME280;58135;50.948;-1.458;2022-07-03T06:53:25;101581.36;;;18.30;16.15
70571;BME280;58135;50.948;-1.458;2022-07-03T06:55:50;101580.47;;;17.42;16.10
70571;BME280;58135;50.948;-1.458;2022-07-03T06:58:16;101583.65;;;18.29;15.97
70571;BME280;58135;50.948;-1.458;2022-07-03T07:00:41;101584.09;;;18.25;15.92
70571;BME280;58135;50.948;-1.458;2022-07-03T07:03:07;101585.59;;;17.40;15.72
70571;BME280;58135;50.948;-1.458;2022-07-03T07:05:32;101589.09;;;17.46;15.94
70571;BME280;58135;50.948;-1.458;2022-07-03T07:07:58;101591.67;;;15.98;15.84
70571;BME280;58135;50.948;-1.458;2022-07-03T07:10:23;101591.12;;;18.14;15.87
70571;BME280;58135;50.948;-1.458;2022-07-03T07:12:49;101594.83;;;15.71;15.84
70571;BME280;58135;50.948;-1.458;2022-07-03T07:15:14;101595.94;;;17.76;15.83
70571;BME280;58135;50.948;-1.458;2022-07-03T07:17:40;101593.15;;;17.27;15.66
70571;BME280;58135;50.948;-1.458;2022-07-03T07:20:06;101591.50;;;16.75;15.61
70571;BME280;58135;50.948;-1.458;2022-07-03T07:22:31;101593.88;;;18.08;14.65
70571;BME280;58135;50.948;-1.458;2022-07-03T07:24:56;101593.63;;;18.37;15.00
70571;BME280;58135;50.948;-1.458;2022-07-03T07:27:22;101590.71;;;18.94;14.68
70571;BME280;58135;50.948;-1.458;2022-07-03T07:29:48;101591.25;;;17.62;15.06
70571;BME280;58135;50.948;-1.458;2022-07-03T07:32:14;101593.20;;;19.94;15.02
70571;BME280;58135;50.948;-1.458;2022-07-03T07:34:38;101592.72;;;20.23;14.75
70571;BME280;58135;50.948;-1.458;2022-07-03T07:37:04;101596.76;;;18.69;13.93
70571;BME280;58135;50.948;-1.458;2022-07-03T07:39:30;101599.38;;;19.78;14.87
70571;BME280;58135;50.948;-1.458;2022-07-03T07:41:55;101602.32;;;18.20;14.65
70571;BME280;58135;50.948;-1.458;2022-07-03T07:44:20;101602.35;;;18.30;14.41
70571;BME280;58135;50.948;-1.458;2022-07-03T07:46:46;101604.93;;;20.08;14.69
70571;BME280;58135;50.948;-1.458;2022-07-03T07:49:11;101606.36;;;21.18;14.52
70571;BME280;58135;50.948;-1.458;2022-07-03T07:51:37;101612.65;;;19.65;14.38
70571;BME280;58135;50.948;-1.458;2022-07-03T07:54:03;101610.98;;;19.89;14.23
70571;BME280;58135;50.948;-1.458;2022-07-03T07:56:28;101613.82;;;20.06;14.21
70571;BME280;58135;50.948;-1.458;2022-07-03T07:58:53;101612.58;;;21.41;14.23
70571;BME280;58135;50.948;-1.458;2022-07-03T08:01:20;101610.60;;;19.24;13.93
70571;BME280;58135;50.948;-1.458;2022-07-03T08:03:44;101608.96;;;19.77;13.70
70571;BME280;58135;50.948;-1.458;2022-07-03T08:06:10;101612.10;;;19.72;13.73
70571;BME280;58135;50.948;-1.458;2022-07-03T08:08:35;101613.33;;;19.29;13.97
70571;BME280;58135;50.948;-1.458;2022-07-03T08:11:01;101612.25;;;20.31;13.98
70571;BME280;58135;50.948;-1.458;2022-07-03T08:13:26;101612.67;;;19.67;14.09
70571;BME280;58135;50.948;-1.458;2022-07-03T08:15:52;101611.50;;;20.82;13.98
70571;BME280;58135;50.948;-1.458;2022-07-03T08:18:17;101610.50;;;20.06;13.98
70571;BME280;58135;50.948;-1.458;2022-07-03T08:20:43;101611.03;;;20.08;13.93
70571;BME280;58135;50.948;-1.458;2022-07-03T08:23:08;101612.49;;;19.28;13.42
70571;BME280;58135;50.948;-1.458;2022-07-03T08:25:34;101609.68;;;20.31;13.76
70571;BME280;58135;50.948;-1.458;2022-07-03T08:27:59;101605.84;;;17.86;13.78
70571;BME280;58135;50.948;-1.458;2022-07-03T08:30:25;101604.64;;;20.47;13.67
70571;BME280;58135;50.948;-1.458;2022-07-03T08:32:52;101604.15;;;19.50;13.68
70571;BME280;58135;50.948;-1.458;2022-07-03T08:35:16;101602.06;;;20.15;13.47
70571;BME280;58135;50.948;-1.458;2022-07-03T08:37:41;101599.06;;;17.51;13.64
70571;BME280;58135;50.948;-1.458;2022-07-03T08:40:08;101599.19;;;18.61;13.71
70571;BME280;58135;50.948;-1.458;2022-07-03T08:42:32;101597.69;;;19.29;13.26
70571;BME280;58135;50.948;-1.458;2022-07-03T08:44:58;101596.45;;;19.60;13.30
70571;BME280;58135;50.948;-1.458;2022-07-03T08:47:23;101595.07;;;17.30;13.26
70571;BME280;58135;50.948;-1.458;2022-07-03T08:49:48;101598.48;;;18.76;13.72
70571;BME280;58135;50.948;-1.458;2022-07-03T08:52:14;101599.68;;;18.61;13.48
70571;BME280;58135;50.948;-1.458;2022-07-03T08:54:39;101601.12;;;18.42;13.46
70571;BME280;58135;50.948;-1.458;2022-07-03T08:57:05;101592.28;;;17.93;13.34
70571;BME280;58135;50.948;-1.458;2022-07-03T08:59:36;101596.44;;;20.37;13.03
70571;BME280;58135;50.948;-1.458;2022-07-03T09:01:56;101594.92;;;21.20;13.26
70571;BME280;58135;50.948;-1.458;2022-07-03T09:04:21;101595.64;;;21.42;13.14
70571;BME280;58135;50.948;-1.458;2022-07-03T09:06:47;101595.86;;;19.66;13.02
70571;BME280;58135;50.948;-1.458;2022-07-03T09:09:12;101595.55;;;18.76;13.11
70571;BME280;58135;50.948;-1.458;2022-07-03T09:11:38;101596.23;;;18.09;13.25
70571;BME280;58135;50.948;-1.458;2022-07-03T09:14:03;101599.73;;;21.12;12.49
70571;BME280;58135;50.948;-1.458;2022-07-03T09:16:28;101600.98;;;17.75;12.63
70571;BME280;58135;50.948;-1.458;2022-07-03T09:18:54;101603.09;;;20.06;13.39
70571;BME280;58135;50.948;-1.458;2022-07-03T09:21:20;101599.85;;;19.07;13.02
70571;BME280;58135;50.948;-1.458;2022-07-03T09:23:46;101598.84;;;19.28;13.34
70571;BME280;58135;50.948;-1.458;2022-07-03T09:26:13;101596.72;;;19.91;13.25
70571;BME280;58135;50.948;-1.458;2022-07-03T09:28:43;101602.93;;;19.64;13.20
70571;BME280;58135;50.948;-1.458;2022-07-03T09:31:01;101603.06;;;20.61;12.93
70571;BME280;58135;50.948;-1.458;2022-07-03T09:33:27;101600.39;;;22.10;12.83
70571;BME280;58135;50.948;-1.458;2022-07-03T09:35:53;101602.06;;;19.56;12.57
70571;BME280;58135;50.948;-1.458;2022-07-03T09:38:18;101608.49;;;20.09;12.80
70571;BME280;58135;50.948;-1.458;2022-07-03T09:40:48;101610.99;;;21.04;12.54
70571;BME280;58135;50.948;-1.458;2022-07-03T09:43:08;101615.17;;;18.53;12.34
70571;BME280;58135;50.948;-1.458;2022-07-03T09:45:49;101614.82;;;20.32;12.33
70571;BME280;58135;50.948;-1.458;2022-07-03T09:47:59;101615.15;;;20.09;12.36
70571;BME280;58135;50.948;-1.458;2022-07-03T09:50:24;101616.53;;;19.88;12.42
70571;BME280;58135;50.948;-1.458;2022-07-03T09:52:50;101617.03;;;21.56;12.28
70571;BME280;58135;50.948;-1.458;2022-07-03T09:55:18;101618.96;;;19.36;12.11
70571;BME280;58135;50.948;-1.458;2022-07-03T09:57:42;101620.92;;;19.47;12.33
70571;BME280;58135;50.948;-1.458;2022-07-03T10:00:10;101621.18;;;20.78;12.83
70571;BME280;58135;50.948;-1.458;2022-07-03T10:02:32;101621.33;;;21.76;12.49
70571;BME280;58135;50.948;-1.458;2022-07-03T10:07:23;101620.42;;;19.97;12.05
70571;BME280;58135;50.948;-1.458;2022-07-03T10:09:48;101620.74;;;19.10;12.19
70571;BME280;58135;50.948;-1.458;2022-07-03T10:12:14;101618.14;;;19.10;12.38
70571;BME280;58135;50.948;-1.458;2022-07-03T10:14:40;101609.12;;;19.48;12.36
70571;BME280;58135;50.948;-1.458;2022-07-03T10:17:05;101606.40;;;19.17;12.57
70571;BME280;58135;50.948;-1.458;2022-07-03T10:19:30;101609.47;;;19.53;12.51
70571;BME280;58135;50.948;-1.458;2022-07-03T10:21:57;101613.23;;;18.83;11.76
70571;BME280;58135;50.948;-1.458;2022-07-03T10:24:22;101609.86;;;18.68;11.99
70571;BME280;58135;50.948;-1.458;2022-07-03T10:26:47;101605.21;;;18.26;12.13
70571;BME280;58135;50.948;-1.458;2022-07-03T10:29:14;101614.87;;;18.78;12.66
70571;BME280;58135;50.948;-1.458;2022-07-03T10:31:37;101616.01;;;18.50;12.35
70571;BME280;58135;50.948;-1.458;2022-07-03T10:34:04;101613.53;;;20.65;12.45
70571;BME280;58135;50.948;-1.458;2022-07-03T10:36:29;101614.70;;;20.30;12.62
70571;BME280;58135;50.948;-1.458;2022-07-03T10:38:57;101615.92;;;19.24;12.37
70571;BME280;58135;50.948;-1.458;2022-07-03T10:41:25;101614.35;;;21.55;12.22
70571;BME280;58135;50.948;-1.458;2022-07-03T10:43:47;101616.01;;;21.13;12.26
70571;BME280;58135;50.948;-1.458;2022-07-03T10:46:12;101610.82;;;20.17;11.90
70571;BME280;58135;50.948;-1.458;2022-07-03T10:48:51;101609.82;;;20.26;11.89
70571;BME280;58135;50.948;-1.458;2022-07-03T10:51:11;101611.97;;;22.42;11.15
70571;BME280;58135;50.948;-1.458;2022-07-03T10:53:27;101614.51;;;21.37;11.87
70571;BME280;58135;50.948;-1.458;2022-07-03T10:56:01;101609.19;;;20.86;11.60
70571;BME280;58135;50.948;-1.458;2022-07-03T10:58:18;101605.94;;;21.48;11.41
70571;BME280;58135;50.948;-1.458;2022-07-03T11:00:52;101608.88;;;21.93;11.52
70571;BME280;58135;50.948;-1.458;2022-07-03T11:03:08;101606.19;;;22.57;11.09
70571;BME280;58135;50.948;-1.458;2022-07-03T11:05:37;101604.38;;;23.09;11.01
70571;BME280;58135;50.948;-1.458;2022-07-03T11:08:07;101606.36;;;23.44;10.40
70571;BME280;58135;50.948;-1.458;2022-07-03T11:10:33;101611.76;;;22.45;10.67
70571;BME280;58135;50.948;-1.458;2022-07-03T11:12:54;101613.41;;;24.23;10.76
70571;BME280;58135;50.948;-1.458;2022-07-03T11:15:24;101618.67;;;23.12;10.72
70571;BME280;58135;50.948;-1.458;2022-07-03T11:20:07;101620.49;;;20.97;10.37
70571;BME280;58135;50.948;-1.458;2022-07-03T11:22:41;101622.41;;;21.49;10.75
70571;BME280;58135;50.948;-1.458;2022-07-03T11:24:58;101624.39;;;22.55;10.95
70571;BME280;58135;50.948;-1.458;2022-07-03T11:27:24;101628.71;;;20.98;10.93
70571;BME280;58135;50.948;-1.458;2022-07-03T11:29:50;101630.27;;;23.32;10.93
70571;BME280;58135;50.948;-1.458;2022-07-03T11:34:44;101626.08;;;25.51;9.69
70571;BME280;58135;50.948;-1.458;2022-07-03T11:37:05;101627.11;;;24.77;9.29
70571;BME280;58135;50.948;-1.458;2022-07-03T11:39:31;101631.21;;;27.02;8.80
70571;BME280;58135;50.948;-1.458;2022-07-03T11:41:56;101624.37;;;28.80;8.57
70571;BME280;58135;50.948;-1.458;2022-07-03T11:44:21;101629.62;;;29.02;7.45
70571;BME280;58135;50.948;-1.458;2022-07-03T11:46:51;101626.12;;;29.86;7.67
70571;BME280;58135;50.948;-1.458;2022-07-03T11:49:14;101619.46;;;32.18;7.18
70571;BME280;58135;50.948;-1.458;2022-07-03T11:51:39;101620.89;;;31.94;6.91
70571;BME280;58135;50.948;-1.458;2022-07-03T11:54:03;101623.50;;;34.30;6.52
70571;BME280;58135;50.948;-1.458;2022-07-03T11:56:29;101624.05;;;34.30;5.37
70571;BME280;58135;50.948;-1.458;2022-07-03T11:58:55;101621.63;;;34.77;5.02
70571;BME280;58135;50.948;-1.458;2022-07-03T12:01:31;101619.09;;;34.04;4.34
70571;BME280;58135;50.948;-1.458;2022-07-03T12:03:44;101623.66;;;32.82;5.67
70571;BME280;58135;50.948;-1.458;2022-07-03T12:06:10;101626.81;;;27.09;6.24
70571;BME280;58135;50.948;-1.458;2022-07-03T12:08:35;101632.51;;;26.19;6.71
70571;BME280;58135;50.948;-1.458;2022-07-03T12:11:03;101632.73;;;27.95;7.31
70571;BME280;58135;50.948;-1.458;2022-07-03T12:13:26;101633.74;;;26.30;8.14
70571;BME280;58135;50.948;-1.458;2022-07-03T12:15:52;101632.56;;;25.15;7.74
70571;BME280;58135;50.948;-1.458;2022-07-03T12:18:17;101629.54;;;26.24;8.13
70571;BME280;58135;50.948;-1.458;2022-07-03T12:20:42;101630.99;;;25.60;8.24
70571;BME280;58135;50.948;-1.458;2022-07-03T12:23:08;101634.47;;;24.91;7.93
70571;BME280;58135;50.948;-1.458;2022-07-03T12:25:39;101640.76;;;23.08;8.80
70571;BME280;58135;50.948;-1.458;2022-07-03T12:27:58;101645.01;;;23.32;9.11
70571;BME280;58135;50.948;-1.458;2022-07-03T12:30:24;101645.60;;;23.48;9.70
70571;BME280;58135;50.948;-1.458;2022-07-03T12:32:50;101646.97;;;23.99;10.51
70571;BME280;58135;50.948;-1.458;2022-07-03T12:35:20;101645.11;;;24.43;10.10
70571;BME280;58135;50.948;-1.458;2022-07-03T12:37:41;101647.01;;;23.35;10.22